Wittstock, Germany

1:27 PM CEST on May 23, 2015 (GMT +0200)
alter Schornstein | | Change Station
CLOSE
Current Station
Personal Weather Station
Location: Putlitz, BRANDENBURG
Elevation: 171 ft
Nearby Weather Stations

Elev 171 ft 53.25 °N, 12.04 °E | Updated 5 seconds ago

Mostly Cloudy
Mostly Cloudy
58.1 °F
Feels Like 58.1 °F
N
1.8
Wind Variable Wind from West
Gusts 2.5 mph

Today
High -- | Low -- °F
--% Chance of Precip.
Yesterday
High -- | Low -- °F
Precip. -- in
4:59 AM 9:14 PM
Waxing Crescent, 29% visible
Pressure 30.12 in
Visibility 6.2 miles
Clouds Mostly Cloudy 1100 ft
Dew Point 54 °F
Humidity 85%
Rainfall 0.00 in
Snow Depth Not available.
UV 1.0 out of 12
Pollen Not available.
Air Quality Not available.
Flu Activity Not available.
METAR EDOP 231120Z 33008KT 290V360 9999 BKN011 13/10 Q1020 RMK ATIS P

More Conditions Fewer Conditions

Pressure 30.12 in
Visibility 6.2 miles
Clouds Mostly Cloudy 1100 ft
Dew Point 54 °F
Humidity 85%
Rainfall 0.00 in
Snow Depth Not available.
UV 1.0 out of 12
Pollen Not available.
Air Quality Not available.
Flu Activity Not available.
METAR EDOP 231120Z 33008KT 290V360 9999 BKN011 13/10 Q1020 RMK ATIS P

More Conditions Fewer Conditions

10-Day Weather Forecast

Almanac

Astronomy

May. 23, 2015 Rise Set
Actual Time
Civil Twilight
Nautical Twilight
Astronomical Twilight
Moon
Length of Visible Light
Length of Day
Tomorrow will be .
, % of the Moon is Illuminated

Today's Extremes

Country Highs Country Lows

Community

WunderPhotos

Upload Photos

1,823,409 photos uploaded!

WunderBlogs® & News

Nearby

Air Quality

  Air Quality AQ Index Pollutant
Not available.

Snow Depth

Station Depth Elevation

Earthquake Activity

City Distance Mag. Time & Date
Minimum magnitude displayed is 2.5.

Coastal Water Temperatures

Place Temperature

Stations

Nearby Weather Stations

Station Location Temp. Windchill Dew Point Humidity Wind Precip. Elev Updated Type